This is the latest recevied weather packets stored in our database for station/object DC4AT. If no packets are shown the sender has not sent any weather packets the latest 1 day(s).
| Time | Temp. | Humidity | Pressure | Rain* | Wind** | Luminosity | Snow |
|---|---|---|---|---|---|---|---|
| 1777999413 | 15° C | 85% | 1007.2 hPa | 0 mm | 2.24 m/s, 254° | 65 W/m² | - |
| 1777998813 | 15° C | 84% | 1007.3 hPa | 0 mm | 2.24 m/s, 329° | 65 W/m² | - |
| 1777998213 | 15° C | 84% | 1007.4 hPa | 0 mm | 2.24 m/s, 349° | 74 W/m² | - |
| 1777997613 | 15° C | 84% | 1007.4 hPa | 0 mm | 1.79 m/s, 311° | 83 W/m² | - |
| 1777997013 | 15.56° C | 84% | 1007.3 hPa | 0 mm | 2.24 m/s, 302° | 79 W/m² | - |
| 1777996413 | 15.56° C | 84% | 1007.4 hPa | 0 mm | 2.24 m/s, 327° | 81 W/m² | - |
| 1777995813 | 15.56° C | 84% | 1007.5 hPa | 0 mm | 1.79 m/s, 331° | 76 W/m² | - |
| 1777995213 | 15.56° C | 84% | 1007.5 hPa | 0 mm | 2.24 m/s, 108° | 88 W/m² | - |
| 1777994613 | 15.56° C | 84% | 1007.6 hPa | 0 mm | 2.24 m/s, 341° | 107 W/m² | - |
| 1777994013 | 15.56° C | 83% | 1007.6 hPa | 0 mm | 2.24 m/s, 19° | 118 W/m² | - |
| 1777993413 | 16.11° C | 83% | 1007.6 hPa | 0 mm | 2.24 m/s, 24° | 121 W/m² | - |
| 1777992813 | 16.11° C | 82% | 1007.5 hPa | 0 mm | 2.24 m/s, 49° | 160 W/m² | - |
| 1777992213 | 16.11° C | 81% | 1007.6 hPa | 0 mm | 1.79 m/s, 342° | 130 W/m² | - |
| 1777991613 | 16.67° C | 80% | 1007.6 hPa | 0 mm | 1.79 m/s, 308° | 142 W/m² | - |
| 1777991013 | 16.67° C | 80% | 1007.7 hPa | 0 mm | 1.79 m/s, 335° | 176 W/m² | - |
| 1777990413 | 16.67° C | 80% | 1007.6 hPa | 0 mm | 2.68 m/s, 309° | 176 W/m² | - |
| 1777989813 | 17.22° C | 80% | 1007.9 hPa | 0 mm | 2.68 m/s, 338° | 195 W/m² | - |
| 1777989213 | 17.22° C | 79% | 1007.9 hPa | 0 mm | 2.68 m/s, 330° | 229 W/m² | - |
| 1777988613 | 17.22° C | 78% | 1008 hPa | 0 mm | 2.24 m/s, 15° | 239 W/m² | - |
| 1777988013 | 17.78° C | 78% | 1008 hPa | 0 mm | 2.24 m/s, 328° | 220 W/m² | - |
| 1777987413 | 17.78° C | 75% | 1008 hPa | 0 mm | 2.24 m/s, 296° | 202 W/m² | - |
| 1777986813 | 17.78° C | 75% | 1007.9 hPa | 0 mm | 2.24 m/s, 243° | 250 W/m² | - |
| 1777986213 | 17.78° C | 73% | 1008.1 hPa | 0 mm | 1.79 m/s, 355° | 552 W/m² | - |
| 1777985613 | 18.33° C | 72% | 1008.1 hPa | 0 mm | 1.34 m/s, 338° | 397 W/m² | - |
| 1777985013 | 17.78° C | 75% | 1008.2 hPa | 0 mm | 1.79 m/s, 296° | 663 W/m² | - |
* Rain latest hour (hover to see other rain measurements)
** Current wind speed in m/s (hover to see current wind gust speed)